Tiempo atmosférico en la estación meteorológica de Arroyo Del Ojanco, Jaén (580 m.)



Fecha
DESCASC
Temp. máxima en grados centígrados (hora)
DESCASC
Temp. mínima en grados centígrados (hora)
DESCASC
Temp. media en grados centígrados
DESCASC
Racha de viento máxima en m/sg (hora)
DESCASC
Velocidad máxima media en intervalos de 10 minutos(hora)
DESCASC
Precipitaciones diarias en mm
DESCASC
Precipitaciones de 00:00 a 06:00 en mm
DESCASC
Precipitaciones de 06:00 a 12:00 en mm
DESCASC
Precipitaciones de 12:00 a 18:00 en mm
DESCASC
Precipitaciones de 18:00 a 24:00 en mm
DESCASC
13-10-2019 30.6 (17:20) 14.9 (08:40) 22.8 8.33 (16:10) 4.17 (17:00) 0 0 0 0 0
12-10-2019 29.9 (17:40) 16.6 (08:30) 23.3 4.17 (14:50) 2.5 (10:20) 0 0 0 0 0
11-10-2019 29 (16:20) 14.5 (08:10) 21.8 4.72 (17:00) 3.06 (16:40) 0 0 0 0 0
10-10-2019 31.1 (17:40) 15.7 (00:00) 23.4 5.28 (15:50) 3.06 (15:50) 0 0 0 0 0
09-10-2019 32.6 (16:50) 14.8 (00:00) 23.7 5 (15:50) 2.78 (18:30) 0 0 0 0 0
08-10-2019 32.1 (17:10) 14.5 (00:00) 23.3 6.94 (15:20) 3.89 (15:00) 0 0 0 0 0
07-10-2019 -- (--) -- (--) -- -- (--) -- (--) -- -- -- 0 0
06-10-2019 -- (--) -- (--) -- -- (--) -- (--) -- 0 0 -- --
05-10-2019 29.7 (17:40) 12.3 (00:00) 21 6.11 (17:50) 3.33 (17:00) 0 0 0 0 0
04-10-2019 29.4 (17:30) 11.7 (00:00) 20.5 5 (16:40) 3.33 (16:40) 0 0 0 0 0
03-10-2019 26.1 (17:20) 11.2 (00:00) 18.7 7.22 (15:00) 3.61 (15:00) 0 0 0 0 0
02-10-2019 26.6 (17:10) 13.5 (00:00) 20.1 7.78 (15:30) 3.89 (16:30) 0 0 0 0 0
01-10-2019 -- (--) -- (--) -- -- (--) -- (--) 0 0 0 0 0
30-09-2019 30.7 (17:20) 14.1 (00:00) 22.4 6.11 (17:30) 4.17 (17:30) 0 0 0 0 0
29-09-2019 32.5 (16:50) 14.1 (00:00) 23.3 6.39 (16:10) 3.61 (18:30) 0 0 0 0 0
28-09-2019 31.8 (17:20) 13.8 (00:00) 22.8 6.39 (17:10) 3.89 (18:00) 0 0 0 0 0
27-09-2019 30.6 (17:50) 13.9 (00:00) 22.3 5.28 (16:20) 3.61 (19:00) 0 0 0 0 0
26-09-2019 30.2 (17:20) 13.9 (00:00) 22.1 6.11 (15:30) 3.33 (16:00) 0 0 0 0 0
25-09-2019 27.7 (17:20) 15 (00:00) 21.4 7.78 (14:20) 3.89 (14:40) 0 0 0 0 0
24-09-2019 29.3 (18:10) 13.4 (00:00) 21.3 6.11 (14:20) 3.89 (18:30) 0 0 0 0 0
23-09-2019 -- (--) -- (--) -- -- (--) -- (--) -- 0 0 -- 0
22-09-2019 23.4 (13:30) 17.4 (00:00) 20.4 9.44 (13:20) 4.72 (13:30) 0.1 0 0 0.1 0
21-09-2019 24.3 (17:10) 19.1 (00:00) 21.7 5.28 (23:40) 3.61 (17:30) 2 1.8 0 0 0.2
20-09-2019 28.2 (15:50) 18.5 (00:00) 23.4 6.94 (16:00) 3.89 (16:10) 0 0 0 0 0
19-09-2019 29.3 (17:40) 16.6 (00:00) 22.9 8.06 (16:00) 4.17 (16:20) 0 0 0 0 0
18-09-2019 29.5 (17:20) 16.3 (00:00) 22.9 5.28 (17:20) 3.33 (21:10) 0 0 0 0 0
17-09-2019 29.9 (16:50) 18.1 (00:00) 24 10.56 (17:00) 6.94 (16:30) 0 0 0 0 0

Gráficas

Temp. máximas Temp. mínimas Temp. medias Precipitaciones Rachas de viento máximas Velocidades máximas media en intervalos de 10 minutos

Datos horarios

Fecha y hora oficial Temperatura (ºC) Velocidad del viento (km/h) Dirección del viento Racha (km/h) Dirección de racha Precipitación (mm) Presión (hPa) Tendencia (hPa) Humedad (%)
2019-10-16 23:00:00 13.9 0 Calma -- -- 0 945.9 1.2 44
2019-10-16 22:00:00 14.8 0 Calma -- -- 0 945.7 0.6 41
2019-10-16 21:00:00 16.9 0 Calma 13 Sur 0 945.2 0 33
2019-10-16 20:00:00 18.8 9 Sudeste 15 Sudeste 0 944.7 -0.9 30
2019-10-16 19:00:00 21.6 4 Sudoeste 14 Oeste 0 945.1 -0.8 26
2019-10-16 18:00:00 22.8 9 Oeste 19 Sudoeste 0 945.2 -1.3 24
2019-10-16 17:00:00 21.8 11 Oeste 19 Oeste 0 945.6 -1.4 27
2019-10-16 16:00:00 21.9 11 Oeste 21 Oeste 0 945.9 -1.6 31
2019-10-16 15:00:00 21.4 8 Oeste 17 Oeste 0 946.5 -1 33
2019-10-16 14:00:00 20 8 Oeste 18 Oeste 0 947 -0.2 41
2019-10-16 13:00:00 18.7 3 Noroeste 10 Noroeste 0 947.5 1.5 45
2019-10-16 12:00:00 16.6 0 Calma 6 Nordeste 0 947.5 2.4 55
2019-10-16 11:00:00 12.4 0 Calma 9 Nordeste 0 947.2 2.4 68
2019-10-16 10:00:00 9.4 0 Calma 6 Nordeste 0 946 1.2 81
2019-10-16 09:00:00 6.6 0 Calma 6 Nordeste 0 945.1 0 92
2019-10-16 08:00:00 6.5 0 Calma 4 Nordeste 0 944.8 -0.9 92
2019-10-16 07:00:00 6.9 0 Calma 0 Calma 0 944.8 -1.4 89
2019-10-16 06:00:00 7.1 0 Calma 6 Nordeste 0 945.1 -1.2 89
2019-10-16 05:00:00 7.8 0 Calma 5 Nordeste 0 945.7 -1 85
2019-10-16 04:00:00 8.4 0 Calma 8 Nordeste 0 946.2 -0.8 81
2019-10-16 03:00:00 9.5 0 Calma 8 Nordeste 0 946.3 -0.6 76
2019-10-16 02:00:00 9.5 0 Calma -- -- 0 946.7 -0.5 74
2019-10-16 01:00:00 10.3 0 Calma 5 Nordeste 0 947 0.2 70
2019-10-16 00:00:00 11.5 0 Calma 5 Sudeste 0 946.9 0.2 67
2019-10-15 23:00:00 11.9 0 Calma -- -- 0 947.2 0.6 63
2019-10-15 22:00:00 12.9 0 Calma 8 Sur 0 946.8 0.1 58
2019-10-15 21:00:00 13.9 0 Calma 10 Sur 0 946.7 0.1 51
2019-10-15 20:00:00 15.6 7 Sudeste 10 Sudeste 0 946.6 -0.2 47
2019-10-15 19:00:00 18.4 5 Sudoeste 9 Oeste 0 946.7 -0.1 42
2019-10-15 18:00:00 20.1 4 Noroeste 11 Noroeste 0 946.6 -0.6 37
2019-10-15 17:00:00 19.2 3 Norte 14 Noroeste 0 946.8 -0.9 38
2019-10-15 16:00:00 18.3 9 Oeste 19 Oeste 0 946.8 -1.1 42
2019-10-15 15:00:00 17.6 3 Oeste 14 Sudoeste 0 947.2 -0.7 43
2019-10-15 14:00:00 17.2 3 Oeste 14 Sudoeste 0 947.7 0.1 46
2019-10-15 13:00:00 16.3 4 Sur 15 Sudoeste 0 947.9 1.1 51
2019-10-15 12:00:00 14.6 4 Sudoeste 14 Oeste 0 947.9 1.7 63
2019-10-15 11:00:00 12.8 6 Oeste 11 Oeste 0 947.6 2.1 82
2019-10-15 10:00:00 11.4 3 Oeste 9 Oeste 0.1 946.8 1.4 93
2019-10-15 09:00:00 11.2 0 Calma 7 Sudoeste 0 946.2 1 96
2019-10-15 08:00:00 10.9 2 Sudoeste 12 Sudoeste 0 945.5 0.2 95
2019-10-15 07:00:00 11 0 Calma 8 Sur 0 945.4 0.2 95
2019-10-15 06:00:00 11.1 4 Sudoeste 15 Sudoeste 0 945.2 -0.2 95
2019-10-15 05:00:00 11.8 9 Sudoeste 16 Sudoeste 0 945.3 0.1 95
2019-10-15 04:00:00 12.1 4 Sudoeste 16 Sudoeste 0 945.2 0.6 94
2019-10-15 03:00:00 12.3 8 Sudoeste 15 Sudoeste 0.1 945.4 0.5 93
2019-10-15 02:00:00 12.4 6 Sur 11 Sur 0.3 945.2 0.9 90
2019-10-15 01:00:00 12.5 6 Sudeste 16 Sudeste 0.3 944.6 0.8 90
2019-10-15 00:00:00 13.6 3 Sudoeste 18 Noroeste 0.2 944.9 2.2 87
2019-10-14 23:00:00 14.6 9 Noroeste 23 Noroeste 0 944.3 1.6 81
2019-10-14 22:00:00 17.9 17 Sudoeste 37 Oeste 0 943.8 1.4 61
2019-10-14 21:00:00 18.2 15 Sudoeste 31 Sudoeste 0 942.7 0.3 64
2019-10-14 20:00:00 18.7 13 Sudoeste 39 Sudoeste 0 942.7 0.9 59
2019-10-14 19:00:00 20.2 18 Sudoeste 44 Sudoeste 0 942.4 0.6 53
2019-10-14 18:00:00 21.4 26 Sudoeste 54 Sudoeste 0 942.4 0.5 51
2019-10-14 17:00:00 22.9 22 Oeste 47 Oeste 0 941.8 -0.6 50
2019-10-14 16:00:00 21.9 22 Oeste 39 Sudoeste 0 941.8 -0.9 54
2019-10-14 15:00:00 20.7 20 Oeste 41 Oeste 0 941.9 -1.2 60
2019-10-14 14:00:00 20.2 19 Sudoeste 34 Oeste 0 942.4 -0.7 69
2019-10-14 13:00:00 20.7 21 Sudoeste 34 Sur 0 942.7 0.3 68
2019-10-14 12:00:00 19.3 14 Sudoeste 24 Sudoeste 0 943.1 0.3 82
2019-10-14 11:00:00 17.7 6 Sudoeste 17 Sudoeste 0 943.1 1.2 91
2019-10-14 10:00:00 17.2 9 Sur 22 Sudoeste 0.2 942.4 1.7 93
2019-10-14 09:00:00 17.6 12 Sudoeste 33 Sudoeste 0 942.8 2.6 86
2019-10-14 08:00:00 19.3 14 Sudoeste 21 Sudoeste 0 941.9 1.7 56
2019-10-14 07:00:00 19.4 0 Calma 12 Sur 0 940.7 1.3 53
2019-10-14 06:00:00 22.3 10 Sur 20 Sur 0 940.2 0.2 48
2019-10-14 05:00:00 18.6 5 Sudoeste 12 Sudoeste 0 940.2 -0.4 51
2019-10-14 04:00:00 19.9 0 Calma 9 Noroeste 0 939.4 -2.4 49
2019-10-14 03:00:00 20 0 Calma 12 Oeste 0 940 -2.3 49
2019-10-14 02:00:00 20.4 0 Calma 15 Nordeste 0 940.6 -1.9 47
2019-10-14 01:00:00 21.3 2 Nordeste 10 Nordeste 0 941.8 -0.9 43
2019-10-14 00:00:00 22.6 2 Norte 10 Norte 0 942.3 -0.6 41
2019-10-13 23:00:00 22.9 2 Norte 15 Sudeste 0 942.5 -0.3 39
2019-10-13 22:00:00 22.9 0 Calma 10 Sudeste 0 942.7 -0.1 37
2019-10-13 21:00:00 26.1 11 Sudeste 18 Sudeste 0 942.9 -0.2 33
2019-10-13 20:00:00 26.5 12 Sudeste 17 Sudoeste 0 942.8 -0.7 32
2019-10-13 19:00:00 29.3 9 Sudoeste 25 Sudoeste 0 942.8 -0.8 30
2019-10-13 18:00:00 30 13 Oeste 26 Oeste 0 943.1 -0.8 30
2019-10-13 17:00:00 29.5 15 Oeste 30 Sudoeste 0 943.5 -1 31
2019-10-13 16:00:00 29.1 13 Oeste 26 Sudoeste 0 943.6 -1.2 32
2019-10-13 15:00:00 28.4 11 Oeste 20 Sudoeste 0 943.9 -1 37
2019-10-13 14:00:00 26.6 6 Oeste 13 Oeste 0 944.5 -0.2 51
2019-10-13 13:00:00 24 4 Oeste 12 Oeste 0 944.8 1.1 63
2019-10-13 12:00:00 22.1 5 Oeste 14 Oeste 0 944.9 2 70
2019-10-13 11:00:00 20 3 Sudoeste 8 Sudoeste 0 944.7 1.7 74
2019-10-13 10:00:00 17.7 0 Calma -- -- 0 943.7 0.6 87
2019-10-13 09:00:00 15.2 0 Calma 5 Nordeste 0 942.9 -0.1 94
2019-10-13 08:00:00 15.8 0 Calma -- -- 0 943 -0.2 92
2019-10-13 07:00:00 16.6 0 Calma 6 Sudeste 0 943.1 -0.6 88
2019-10-13 06:00:00 17.8 0 Calma 5 Nordeste 0 943 -1.2 85
2019-10-13 05:00:00 18.3 0 Calma 12 Sur 0 943.2 -1 81
2019-10-13 04:00:00 19.9 8 Sur 14 Sur 0 943.7 -0.5 74
2019-10-13 03:00:00 19.8 0 Calma 11 Sur 0 944.2 0 66
2019-10-13 02:00:00 21.6 4 Sur 15 Sur 0 944.2 0.6 62
2019-10-13 01:00:00 22 6 Sur 13 Sur 0 944.2 1 61
2019-10-13 00:00:00 19.9 2 Nordeste 9 Este 0 944.2 1.3 61
2019-10-12 23:00:00 20.4 0 Calma 10 Sur 0 943.6 0.9 57
2019-10-12 22:00:00 21.9 0 Calma 0 Calma 0 943.2 0.6 53
2019-10-12 21:00:00 22.8 0 Calma 8 Sudeste 0 942.9 0.1 49
2019-10-12 20:00:00 25.3 8 Sudeste 13 Sur 0 942.7 -0.2 44
2019-10-12 19:00:00 28.3 6 Sudoeste 11 Sudoeste 0 942.6 -0.4 41
2019-10-12 18:00:00 29.4 3 Oeste 10 Oeste 0 942.8 -1.1 39
2019-10-12 17:00:00 29 5 Oeste 11 Oeste 0 942.9 -1.6 43
2019-10-12 16:00:00 28.1 2 Oeste 13 Oeste 0 943 -2.1 47
2019-10-12 15:00:00 27.1 5 Oeste 15 Oeste 0 943.9 -1 48
2019-10-12 14:00:00 25 0 Calma 15 Oeste 0 944.5 -0.1 56
2019-10-12 13:00:00 24.9 0 Calma 9 Norte 0 945.1 1.1 54
2019-10-12 12:00:00 23.3 4 Nordeste 8 Norte 0 944.9 0.9 58
2019-10-12 11:00:00 20.4 0 Calma 14 Nordeste 0 944.6 0.6 73
2019-10-12 10:00:00 18.7 0 Calma 8 Norte 0 944 -0.2 78
2019-10-12 09:00:00 17 0 Calma 4 Norte 0 944 -0.4 81
2019-10-12 08:00:00 16.8 0 Calma -- -- 0 944 -0.5 79
2019-10-12 07:00:00 17.5 0 Calma -- -- 0 944.2 -0.3 74
2019-10-12 06:00:00 17.5 0 Calma 4 Sudoeste 0 944.4 -1 73
2019-10-12 05:00:00 18.6 0 Calma 6 Sur 0 944.5 -1.2 69
2019-10-12 04:00:00 19.4 0 Calma 5 Nordeste 0 944.5 -1.1 67
2019-10-12 03:00:00 19.7 0 Calma 6 Nordeste 0 945.4 -0.6 66
2019-10-12 02:00:00 19.7 0 Calma -- -- 0 945.7 -0.1 66
2019-10-12 01:00:00 20.2 0 Calma 9 Nordeste 0 945.6 -0.2 66
2019-10-12 00:00:00 21.4 4 Sur 9 Sur 0 946 0.5 61
2019-10-11 23:00:00 22 3 Sudoeste 7 Sudeste 0 945.8 0.6 56
2019-10-11 22:00:00 23.2 0 Calma -- -- 0 945.8 0.5 51
2019-10-11 21:00:00 23.9 0 Calma 11 Sur 0 945.5 0.1 52
2019-10-11 20:00:00 24.8 8 Sur 13 Sur 0 945.2 -0.5 52
2019-10-11 19:00:00 26.1 5 Sudoeste 13 Sudoeste 0 945.3 -0.5 50
2019-10-11 18:00:00 27.3 8 Sudoeste 16 Oeste 0 945.4 -0.8 48
2019-10-11 17:00:00 27.2 11 Oeste 17 Sudoeste 0 945.7 -1.2 48
2019-10-11 16:00:00 28.5 7 Sudoeste 17 Oeste 0 945.8 -2.2 43
2019-10-11 15:00:00 28 4 Oeste 14 Oeste 0 946.2 -1.7 43
2019-10-11 14:00:00 27.1 5 Norte 10 Noroeste 0 946.9 -1 47
2019-10-11 13:00:00 25.3 4 Noroeste 10 Noroeste 0 948 0.9 55
2019-10-11 12:00:00 22.8 2 Noroeste 12 Oeste 0 947.9 1.8 67
2019-10-11 11:00:00 21 0 Calma 4 Oeste 0 947.9 1.9 74
2019-10-11 10:00:00 18.6 0 Calma 2 Nordeste 0 947.1 1.4 83
2019-10-11 09:00:00 14.9 0 Calma 7 Norte 0 946.1 0.3 93
2019-10-11 08:00:00 14.8 0 Calma 7 Sur 0 946 0.1 90
2019-10-11 07:00:00 16.4 0 Calma -- -- 0 945.7 -0.8 87
2019-10-11 06:00:00 16.7 0 Calma -- -- 0 945.8 -0.7 86
2019-10-11 05:00:00 17.3 0 Calma 5 Sudeste 0 945.9 -0.6 83
2019-10-11 04:00:00 18.1 0 Calma -- -- 0 946.5 -0.1 80
2019-10-11 03:00:00 18.9 0 Calma 6 Sur 0 946.5 -0.3 75
2019-10-11 02:00:00 19.8 0 Calma -- -- 0 946.5 -0.4 72
2019-10-11 01:00:00 20.9 0 Calma 6 Sur 0 946.6 0.2 68
2019-10-11 00:00:00 21.6 0 Calma 8 Sur 0 946.8 0.7 66
2019-10-10 23:00:00 23.2 0 Calma 7 Sur 0 946.9 1.3 62
2019-10-10 22:00:00 23.6 0 Calma 8 Sudoeste 0 946.4 0.6 60
2019-10-10 21:00:00 25.2 0 Calma 11 Sur 0 946.1 0.6 51
2019-10-10 20:00:00 27.8 7 Sudeste 13 Sur 0 945.6 -0.1 47
2019-10-10 19:00:00 29.6 8 Sudoeste 14 Oeste 0 945.8 0.1 43
2019-10-10 18:00:00 30.7 8 Sudoeste 17 Sudoeste 0 945.5 -0.5 43
2019-10-10 17:00:00 30.1 8 Oeste 19 Oeste 0 945.7 -1.1 44
2019-10-10 16:00:00 30 11 Oeste 19 Oeste 0 945.7 -1.3 44
2019-10-10 15:00:00 29.2 8 Oeste 16 Sudoeste 0 946 -1.1 45
2019-10-10 14:00:00 28.2 5 Oeste 13 Oeste 0 946.8 -0.1 49
2019-10-10 13:00:00 26.6 5 Oeste 13 Oeste 0 947 1.1 54
2019-10-10 12:00:00 24.3 3 Sudoeste 10 Sudoeste 0 947.1 1.9 57
2019-10-10 11:00:00 22 5 Sudoeste 8 Sudoeste 0 946.9 2.2 63
2019-10-10 10:00:00 19.6 0 Calma 9 Nordeste 0 945.9 1.5 70
2019-10-10 09:00:00 16.3 0 Calma 8 Sur 0 945.2 0.6 75
2019-10-10 08:00:00 16.8 0 Calma 9 Sur 0 944.7 0.4 73
2019-10-10 07:00:00 16.4 3 Nordeste 7 Nordeste 0 944.4 0.1 72
2019-10-10 06:00:00 17.5 0 Calma -- -- 0 944.6 -0.1 68
2019-10-10 05:00:00 18.6 0 Calma 2 Nordeste 0 944.3 -0.5 66
2019-10-10 04:00:00 18.7 0 Calma 7 Sur 0 944.3 -0.6 64
2019-10-10 03:00:00 18.7 0 Calma 6 Sur 0 944.7 -0.1 62
2019-10-10 02:00:00 20 0 Calma -- -- 0 944.8 -0.1 60
2019-10-10 01:00:00 21.2 0 Calma -- -- 0 944.9 0.1 56
2019-10-10 00:00:00 22.3 0 Calma -- -- 0 944.8 0.7 52
2019-10-09 23:00:00 23.7 0 Calma 7 Nordeste 0 944.9 1.1 49
2019-10-09 22:00:00 25.3 3 Sudeste 13 Sur 0 944.8 1.2 44
2019-10-09 21:00:00 27.1 7 Sur 14 Sur 0 944.1 1.3 42
2019-10-09 20:00:00 28 9 Sur 14 Sudoeste 0 943.8 0.2 41
2019-10-09 19:00:00 30.8 8 Sudoeste 17 Sudoeste 0 943.6 -0.4 38
2019-10-09 18:00:00 31.7 9 Sudoeste 15 Sudoeste 0 942.8 -1.3 37
2019-10-09 17:00:00 32.2 5 Sudoeste 14 Oeste 0 943.6 -1.2 36
2019-10-09 16:00:00 31.7 4 Oeste 18 Oeste 0 944 -1.2 38
2019-10-09 15:00:00 30.9 6 Sudoeste 17 Oeste 0 944.1 -1.2 39
2019-10-09 14:00:00 29.1 6 Sur 15 Sur 0 944.8 0 44
2019-10-09 13:00:00 28.2 0 Calma 8 Noroeste 0 945.2 0.8 49
2019-10-09 12:00:00 25 3 Oeste 11 Nordeste 0 945.3 1.6 55
2019-10-09 11:00:00 21.3 6 Nordeste 10 Nordeste 0 944.8 1.3 64
2019-10-09 10:00:00 18.3 0 Calma 9 Norte 0 944.4 1 73
2019-10-09 09:00:00 15.6 5 Nordeste 10 Norte 0 943.7 0.3 76
2019-10-09 08:00:00 14.9 0 Calma 5 Norte 0 943.5 -0.4 --
2019-10-09 07:00:00 15.9 0 Calma 4 Sudoeste 0 943.4 -0.9 --
2019-10-09 06:00:00 16.9 0 Calma 4 Nordeste 0 943.4 -1.5 --
2019-10-09 05:00:00 17.1 0 Calma 6 Nordeste 0 943.9 -1.1 --
2019-10-09 04:00:00 18.5 0 Calma 10 Norte 0 944.3 -0.7 --
2019-10-09 03:00:00 19.2 0 Calma 3 Nordeste 0 944.9 -0.2 --
2019-10-09 02:00:00 20.2 3 Nordeste 11 Sur 0 945 0.1 --
2019-10-09 01:00:00 22.2 5 Sur 12 Sur 0 945 0.4 --
2019-10-09 00:00:00 21.8 0 Calma 5 Oeste 0 945.1 0.6 --
2019-10-08 23:00:00 22.9 0 Calma 7 Nordeste 0 944.9 0.4 --
2019-10-08 22:00:00 25 4 Sudeste 10 Sur 0 944.6 0.3 --
2019-10-08 21:00:00 26.3 8 Sur 12 Sur 0 944.5 0.1 --
2019-10-08 20:00:00 27.7 9 Sur 13 Sur 0 944.5 -0.1 --
2019-10-08 19:00:00 30.8 8 Sudoeste 15 Oeste 0 944.3 -1 --
2019-10-08 18:00:00 31.7 9 Sudoeste 18 Oeste 0 944.4 -1.2 --
2019-10-08 17:00:00 32 7 Sudoeste 22 Sudoeste 0 944.6 -1.5 --
2019-10-08 16:00:00 30.9 11 Oeste 25 Oeste 0 945.3 -1 --
2019-10-08 15:00:00 30.2 14 Sudoeste 22 Oeste 0 945.6 -1 --
2019-10-08 14:00:00 29.6 11 Sudoeste 19 Oeste 0 946.1 -0.1 --
2019-10-08 13:00:00 28.9 2 Noroeste 8 Noroeste 0 946.3 0.6 --
2019-10-08 12:00:00 26.8 0 Calma 11 Sudeste 0 946.6 1.3 --
2019-10-08 11:00:00 22 5 Nordeste 13 Nordeste 0 946.2 1 --
2019-10-08 10:00:00 18.7 0 Calma 7 Norte 0 945.7 0.7 --
2019-10-08 09:00:00 15.8 4 Nordeste 16 Nordeste 0 945.3 0.3 --
2019-10-08 08:00:00 15 0 Calma 9 Nordeste 0 945.2 0.3 --
2019-10-08 07:00:00 16.5 3 Nordeste 12 Nordeste 0 945 -0.1 --
2019-10-08 06:00:00 17 0 Calma 18 Nordeste 0 945 -0.5 --
2019-10-08 05:00:00 18.4 13 Nordeste 19 Nordeste 0 944.9 -0.6 --
2019-10-08 04:00:00 18.4 7 Nordeste 13 Nordeste 0 945.1 -0.7 --
2019-10-08 03:00:00 17.4 0 Calma 16 Nordeste 0 945.5 -0.6 --
2019-10-08 02:00:00 19.2 4 Nordeste 19 Nordeste 0 945.5 -0.6 --
2019-10-08 01:00:00 21.1 10 Nordeste 15 Nordeste 0 945.8 -0.1 --
2019-10-08 00:00:00 20.7 0 Calma 9 Este 0 946.1 0.1 --
2019-10-07 23:00:00 22.7 0 Calma 0 Calma 0 946.1 0.4 --
2019-10-07 22:00:00 23.1 0 Calma 10 Nordeste 0 945.9 0.4 --
2019-10-07 21:00:00 24.8 6 Este 14 Nordeste 0 946 0.6 --
2019-10-07 20:00:00 26.5 6 Nordeste 13 Nordeste 0 945.7 0.3 --
2019-10-07 19:00:00 29.1 7 Nordeste 19 Norte 0 945.5 -0.1 --
2019-10-07 18:00:00 30.1 9 Norte 22 Norte 0 945.4 -0.3 --
2019-10-07 17:00:00 30.5 4 Norte 14 Nordeste 0 945.4 -0.9 --
2019-10-07 16:00:00 29.9 0 Calma 15 Este 0 945.6 -1.2 --
2019-10-07 15:00:00 28.4 7 Este 21 Nordeste 0 945.7 -1.2 --
2019-10-07 14:00:00 27.4 6 Nordeste 16 Nordeste 0 946.3 -0.1 --
2019-10-07 13:00:00 25.6 11 Nordeste 23 Norte 0 946.8 1.3 --
2019-10-07 12:00:00 23.4 10 Nordeste 15 Nordeste 0 946.9 1.9 --
2019-10-07 11:00:00 19.9 7 Norte 14 Nordeste 0 946.4 -- --
2019-10-07 10:00:00 16.1 0 Calma 8 Nordeste 0 945.5 -- --
2019-10-07 09:00:00 14.2 6 Nordeste -- -- -- 945 -- --
2019-10-07 08:00:00 -- -- -- -- -- -- -- -- --
2019-10-07 07:00:00 -- -- -- -- -- -- -- -- --
2019-10-07 06:00:00 -- -- -- -- -- -- -- -- --
2019-10-07 05:00:00 -- -- -- -- -- -- -- -- --
2019-10-07 04:00:00 -- -- -- -- -- -- -- -- --
2019-10-07 03:00:00 -- -- -- -- -- -- -- -- --
2019-10-07 02:00:00 -- -- -- -- -- -- -- -- --
2019-10-07 01:00:00 -- -- -- -- -- -- -- -- --
2019-10-07 00:00:00 -- -- -- -- -- -- -- -- --
2019-10-06 23:00:00 -- -- -- -- -- -- -- -- --
2019-10-06 22:00:00 -- -- -- -- -- -- -- -- --
2019-10-06 21:00:00 -- -- -- -- -- -- -- -- --
2019-10-06 20:00:00 -- -- -- -- -- -- -- -- --
2019-10-06 19:00:00 -- -- -- -- -- -- -- -- --
2019-10-06 18:00:00 -- -- -- -- -- -- -- -- --
2019-10-06 17:00:00 -- -- -- -- -- -- -- -- --
2019-10-06 16:00:00 -- -- -- -- -- -- -- -- --
2019-10-06 15:00:00 -- -- -- -- -- -- -- -- --
2019-10-06 14:00:00 26.8 3 Sudoeste 13 Sudoeste 0 947.5 0.7 --
2019-10-06 13:00:00 24.6 0 Calma 9 Noroeste 0 947.9 1.7 --
2019-10-06 12:00:00 22.5 4 Noroeste 8 Noroeste 0 947.3 2.4 --
2019-10-06 11:00:00 19.4 0 Calma 6 Norte 0 946.8 2 --
2019-10-06 10:00:00 16.4 3 Nordeste 10 Sur 0 946.2 1.3 --
2019-10-06 09:00:00 13 4 Nordeste 10 Nordeste 0 944.9 0.2 --
2019-10-06 08:00:00 13.7 2 Sur 9 Sur 0 944.8 0.2 --
2019-10-06 07:00:00 13.6 0 Calma 8 Nordeste 0 944.9 0 --
2019-10-06 06:00:00 14.2 0 Calma 2 Sur 0 944.7 -0.5 --
2019-10-06 05:00:00 14.9 0 Calma 8 Sudeste 0 944.6 -0.6 --
2019-10-06 04:00:00 15.5 0 Calma 6 Nordeste 0 944.9 -0.3 --
2019-10-06 03:00:00 16.3 0 Calma -- -- 0 945.2 -0.2 --
2019-10-06 02:00:00 17.3 0 Calma 5 Norte 0 945.2 -0.2 --
2019-10-06 01:00:00 18.2 0 Calma -- -- 0 945.2 0 --
2019-10-06 00:00:00 20.1 0 Calma 2 Sur 0 945.4 0.8 --
2019-10-05 23:00:00 21.2 0 Calma 15 Sur 0 945.4 1.2 --
2019-10-05 22:00:00 23.9 9 Sur 15 Sur 0 945.2 1.1 --
2019-10-05 21:00:00 24.2 9 Sur 15 Sur 0 944.6 0.8 --
2019-10-05 20:00:00 25.1 10 Sur 18 Sur 0 944.2 0.3 --
2019-10-05 19:00:00 28.1 9 Sudoeste 18 Oeste 0 944.1 0.3 --
2019-10-05 18:00:00 29.5 11 Sudoeste 22 Sudoeste 0 943.8 -0.2 --
2019-10-05 17:00:00 29.1 12 Sudoeste 22 Oeste 0 943.9 -0.9 --
2019-10-05 16:00:00 28.9 9 Oeste 19 Oeste 0 943.8 -1.2 --
2019-10-05 15:00:00 27.8 10 Oeste 18 Oeste 0 944 -0.7 --
2019-10-05 14:00:00 26.7 5 Oeste 15 Sudoeste 0 944.8 0.4 --
2019-10-05 13:00:00 24.9 0 Calma 8 Oeste 0 945 1.5 --
2019-10-05 12:00:00 22.3 0 Calma 6 Nordeste 0 944.7 1.8 --
2019-10-05 11:00:00 19.6 0 Calma 6 Norte 0 944.4 1.6 --
2019-10-05 10:00:00 15.5 0 Calma 9 Nordeste 0 943.5 0.8 --
2019-10-05 09:00:00 12.5 3 Nordeste 10 Nordeste 0 942.9 -0.2 --
2019-10-05 08:00:00 13.1 0 Calma 7 Nordeste 0 942.8 -0.3 --
2019-10-05 07:00:00 13.1 0 Calma -- -- 0 942.7 -0.7 --
2019-10-05 06:00:00 13.9 0 Calma -- -- 0 943.1 -0.7 --
2019-10-05 05:00:00 14.3 0 Calma -- -- 0 943.1 -0.8 --
2019-10-05 04:00:00 14.6 0 Calma 9 Sur 0 943.4 -0.8 --
2019-10-05 03:00:00 15.6 0 Calma 0 Calma 0 943.8 -0.4 --
2019-10-05 02:00:00 17.5 0 Calma -- -- 0 943.9 -0.3 --
2019-10-05 01:00:00 17.6 0 Calma -- -- 0 944.2 -0.1 --
2019-10-05 00:00:00 19.4 0 Calma -- -- 0 944.2 -0.1 --
2019-10-04 23:00:00 19.8 0 Calma 6 Norte 0 944.2 0.1 --
2019-10-04 22:00:00 22.8 4 Sudeste 15 Sur 0 944.3 0.2 --
2019-10-04 21:00:00 24.6 9 Sur 17 Sur 0 944.3 0.3 --
2019-10-04 20:00:00 25.2 9 Sur 13 Sur 0 944.1 0.1 --
2019-10-04 19:00:00 28.1 10 Sudoeste 18 Sudoeste 0 944.1 -0.4 --
2019-10-04 18:00:00 29.1 8 Oeste 17 Oeste 0 944 -1.2 --
2019-10-04 17:00:00 28.8 9 Oeste 18 Oeste 0 944 -1.8 --
2019-10-04 16:00:00 28.2 9 Oeste 18 Oeste 0 944.5 -1.8 --
2019-10-04 15:00:00 26.9 6 Noroeste 13 Noroeste 0 945.2 -1 --
2019-10-04 14:00:00 25.6 3 Noroeste 12 Noroeste 0 945.8 -0.1 --
2019-10-04 13:00:00 23.3 2 Oeste 8 Sudoeste 0 946.3 0.8 --
2019-10-04 12:00:00 21 0 Calma 6 Oeste 0 946.2 1.3 --
2019-10-04 11:00:00 17.8 0 Calma 6 Nordeste 0 945.9 1.4 --
2019-10-04 10:00:00 14.8 0 Calma 5 Nordeste 0 945.5 1.2 --
2019-10-04 09:00:00 12.3 0 Calma 10 Nordeste 0 944.9 0.5 --
2019-10-04 08:00:00 11.7 0 Calma 8 Nordeste 0 944.5 -0.6 --
2019-10-04 07:00:00 12.3 0 Calma 6 Nordeste 0 944.3 -0.9 --
2019-10-04 06:00:00 12.8 0 Calma -- -- 0 944.4 -1.4 --
2019-10-04 05:00:00 13.6 0 Calma 6 Sur 0 945.1 -0.9 --
2019-10-04 04:00:00 13.9 0 Calma 5 Norte 0 945.2 -0.9 --
2019-10-04 03:00:00 15 0 Calma -- -- 0 945.8 -0.7 --
2019-10-04 02:00:00 15.9 0 Calma -- -- 0 946 -0.2 --
2019-10-04 01:00:00 16.9 0 Calma -- -- 0 946.1 -0.5 --
2019-10-04 00:00:00 17.9 0 Calma 5 Nordeste 0 946.5 0.1 --
2019-10-03 23:00:00 19.3 0 Calma 14 Sur 0 946.2 0.2 --
2019-10-03 22:00:00 21.5 8 Sur 13 Sur 0 946.6 0.8 --
2019-10-03 21:00:00 22 5 Sur 14 Sur 0 946.4 0.6 --
2019-10-03 20:00:00 22.6 8 Sur 13 Sudoeste 0 946 0 --
2019-10-03 19:00:00 24.8 8 Sudoeste 18 Sudoeste 0 945.8 -0.7 --
2019-10-03 18:00:00 25.6 6 Sudoeste 15 Sudoeste 0 945.8 -0.9 --
2019-10-03 17:00:00 25.5 5 Sudoeste 21 Noroeste 0 946 -1 --
2019-10-03 16:00:00 25 8 Sudoeste 22 Oeste 0 946.5 -0.5 --
2019-10-03 15:00:00 24.6 13 Sudoeste 26 Sudoeste 0 946.7 -0.5 --
2019-10-03 14:00:00 24.2 10 Oeste 21 Oeste 0 947 0.3 --
2019-10-03 13:00:00 22.2 7 Oeste 16 Oeste 0 947 1.2 --
2019-10-03 12:00:00 19.9 0 Calma 10 Oeste 0 947.2 2 --
2019-10-03 11:00:00 17.9 0 Calma 5 Noroeste 0 946.7 1.7 --
2019-10-03 10:00:00 14.8 0 Calma 0 Calma 0 945.8 1.3 --
2019-10-03 09:00:00 11.5 0 Calma 4 Nordeste 0 945.2 0.7 --
2019-10-03 08:00:00 11.6 0 Calma 5 Sur 0 945 0.9 --
2019-10-03 07:00:00 11.8 0 Calma -- -- 0 944.5 -0.1 --
2019-10-03 06:00:00 12.8 0 Calma 0 Calma 0 944.5 0.1 --
2019-10-03 05:00:00 13.4 0 Calma 6 Nordeste 0 944.1 -1.1 --
2019-10-03 04:00:00 13.7 0 Calma 9 Nordeste 0 944.6 -0.9 --
2019-10-03 03:00:00 14.5 0 Calma 13 Nordeste 0 944.4 -1.1 --
2019-10-03 02:00:00 16.2 7 Nordeste 15 Nordeste 0 945.2 -0.5 --
2019-10-03 01:00:00 17 3 Nordeste 13 Nordeste 0 945.5 0 --
2019-10-03 00:00:00 17.2 0 Calma 7 Nordeste 0 945.5 0.4 --
2019-10-02 23:00:00 18.5 0 Calma 0 Calma 0 945.7 1 --
2019-10-02 22:00:00 19.4 0 Calma 7 Nordeste 0 945.5 1.2 --
2019-10-02 21:00:00 21.7 3 Nordeste 14 Este 0 945.1 0.9 --
2019-10-02 20:00:00 22.9 8 Nordeste 18 Nordeste 0 944.7 0.6 --
2019-10-02 19:00:00 25.4 8 Norte 15 Sudoeste 0 944.3 0 --
2019-10-02 18:00:00 25.3 12 Sudoeste 23 Sudoeste 0 944.2 -0.5 --
2019-10-02 17:00:00 26.4 10 Sudoeste 25 Sudoeste 0 944.1 -0.7 --
2019-10-02 16:00:00 25.6 13 Sudoeste 28 Sur 0 944.3 -0.6 --
2019-10-02 15:00:00 24.6 9 Sudoeste 23 Sudoeste 0 944.7 -0.2 --
2019-10-02 14:00:00 23.5 5 Oeste 21 Sudoeste 0 944.8 -0.1 --
2019-10-02 13:00:00 22.4 10 Sudoeste 20 Oeste 0 944.9 0.8 --
2019-10-02 12:00:00 21 5 Sudoeste 16 Oeste 0 944.9 1.4 --
2019-10-02 11:00:00 19 2 Sudoeste 9 Sudoeste 0 944.9 1.6 --
2019-10-02 10:00:00 16.5 0 Calma 0 Calma 0 944.1 0.9 --
2019-10-02 09:00:00 13.5 0 Calma 5 Sur 0 943.5 0.4 --
2019-10-02 08:00:00 14.3 0 Calma -- -- 0 943.3 0.2 --
2019-10-02 07:00:00 14.6 0 Calma -- -- 0 943.2 0 --
2019-10-02 06:00:00 15 0 Calma -- -- 0 943.1 -1 --
2019-10-02 05:00:00 15.9 0 Calma -- -- 0 943.1 -1.1 --
2019-10-02 04:00:00 16.5 0 Calma 4 Noroeste 0 943.2 -0.8 --
2019-10-02 03:00:00 18.1 0 Calma 8 Sur 0 944.1 0.3 --
2019-10-02 02:00:00 19.3 0 Calma 10 Sudeste 0 944.2 0.5 --
2019-10-02 01:00:00 20.9 5 Sur 13 Sur 0 944 0.6 --
2019-10-02 00:00:00 21.5 5 Sur 14 Sudeste 0 943.8 1 --
2019-10-01 23:00:00 21.6 10 Sudeste 15 Sudeste 0 943.7 1.2 --
2019-10-01 22:00:00 21.7 5 Sur 11 Sur 0 943.4 1.1 --
2019-10-01 21:00:00 23.3 2 Sudoeste 13 Sudoeste 0 942.8 0.9 --
2019-10-01 20:00:00 24.7 8 Sudoeste 24 Oeste 0 942.5 0.6 --
2019-10-01 19:00:00 26.5 14 Sudoeste 28 Sudoeste 0 942.3 0 --
2019-10-01 18:00:00 27.3 16 Sudoeste 31 Sudoeste 0 941.9 -0.7 --
2019-10-01 17:00:00 27.8 17 Sudoeste 31 Oeste 0 941.9 -1.3 --
2019-10-01 16:00:00 28.1 17 Sudoeste 32 Sudoeste 0 942.3 -1.2 --
2019-10-01 15:00:00 27.4 19 Sudoeste 31 Sudoeste 0 942.6 -1.3 --
2019-10-01 14:00:00 26.3 16 Sudoeste 30 Sudoeste 0 943.2 -- --
2019-10-01 13:00:00 25.2 17 Sudoeste 29 Sudoeste 0 943.5 -- --
2019-10-01 12:00:00 23.4 13 Sudoeste 20 Sudoeste 0 943.9 1.7 --
2019-10-01 11:00:00 -- -- -- -- -- -- -- -- --
2019-10-01 10:00:00 -- -- -- -- -- -- -- -- --
2019-10-01 09:00:00 15 0 Calma 2 Norte 0 942.2 0.5 --
2019-10-01 08:00:00 14.8 0 Calma 4 Sudoeste 0 941.4 -0.7 --
2019-10-01 07:00:00 15.4 0 Calma -- -- 0 941.7 -0.8 --
2019-10-01 06:00:00 15.7 0 Calma 9 Nordeste 0 941.7 -1.2 --
2019-10-01 05:00:00 16.5 4 Nordeste 9 Nordeste 0 942.1 -1.4 --
2019-10-01 04:00:00 17.2 0 Calma -- -- 0 942.5 -1.3 --
2019-10-01 03:00:00 18 0 Calma -- -- 0 942.9 -1.1 --
2019-10-01 02:00:00 19.4 0 Calma -- -- 0 943.5 -0.7 --
2019-10-01 01:00:00 20.2 0 Calma -- -- 0 943.8 -0.7 --
2019-10-01 00:00:00 21 0 Calma -- -- 0 944 -0.1 --
2019-09-30 23:00:00 22.5 0 Calma 5 Sur 0 944.2 0.4 --
2019-09-30 22:00:00 23.3 0 Calma 15 Sur 0 944.5 0.5 --
2019-09-30 21:00:00 24.8 8 Sur 15 Sur 0 944.1 -0.1 --
2019-09-30 20:00:00 26.5 10 Sur 16 Sudoeste 0 943.8 -0.7 --
2019-09-30 19:00:00 28.9 12 Sudoeste 20 Sudoeste 0 944 -0.8 --
2019-09-30 18:00:00 30.5 13 Sudoeste 22 Sudoeste 0 944.2 -1 --
2019-09-30 17:00:00 30.6 9 Sudoeste 18 Oeste 0 944.5 -1.5 --
2019-09-30 16:00:00 30 7 Oeste 19 Sudoeste 0 944.8 -1.6 --
2019-09-30 15:00:00 29.1 9 Oeste 19 Sudoeste 0 945.2 -1.3 --
2019-09-30 14:00:00 27.7 9 Sudoeste 18 Sudoeste 0 946 -0.1 --
2019-09-30 13:00:00 25.7 7 Sudoeste 14 Sudoeste 0 946.4 1.1 --
2019-09-30 12:00:00 23.8 0 Calma 6 Noroeste 0 946.5 1.8 --
2019-09-30 11:00:00 20.7 0 Calma 0 Calma 0 946.1 1.4 --
2019-09-30 10:00:00 17.7 0 Calma 5 Nordeste 0 945.3 0.7 --
2019-09-30 09:00:00 14.3 0 Calma 7 Nordeste 0 944.7 0.2 --
2019-09-30 08:00:00 14.5 0 Calma -- -- 0 944.7 -0.2 --
2019-09-30 07:00:00 15.2 0 Calma -- -- 0 944.6 -1 --
2019-09-30 06:00:00 15.9 0 Calma -- -- 0 944.5 -1.2 --
2019-09-30 05:00:00 16.3 0 Calma -- -- 0 944.9 -0.9 --
2019-09-30 04:00:00 17.4 0 Calma 6 Nordeste 0 945.6 -- --
2019-09-30 03:00:00 18.1 0 Calma -- -- 0 945.7 -0.4 --
2019-09-30 02:00:00 19.2 0 Calma -- -- 0 945.8 -0.5 --
2019-09-30 01:00:00 -- 0 Calma 5 Sudoeste 0 -- -- --
2019-09-30 00:00:00 21.3 0 Calma 6 Este 0 946.1 0.5 --
2019-09-29 23:00:00 23.4 0 Calma 10 Nordeste 0 946.3 0.9 --
2019-09-29 22:00:00 23.8 3 Nordeste 13 Sudeste 0 946 0.6 --
2019-09-29 21:00:00 27.3 8 Sur 16 Sur 0 945.6 0.1 --
2019-09-29 20:00:00 28.2 11 Sur 17 Sur 0 945.4 -0.5 --
2019-09-29 19:00:00 31 11 Sudoeste 20 Sudoeste 0 945.4 -1 --
2019-09-29 18:00:00 32 10 Sudoeste 20 Oeste 0 945.5 -1.3 --
2019-09-29 17:00:00 32.1 9 Oeste 23 Sudoeste 0 945.9 -1.6 --
2019-09-29 16:00:00 31.6 10 Sudoeste 22 Sudoeste 0 946.4 -1.3 --
2019-09-29 15:00:00 30.6 5 Oeste 16 Oeste 0 946.8 -1 --
2019-09-29 14:00:00 28.6 5 Noroeste 11 Noroeste 0 947.5 0.2 --
2019-09-29 13:00:00 27 3 Oeste 10 Oeste 0 947.7 1.2 --
2019-09-29 12:00:00 24 0 Calma 6 Norte 0 947.8 1.9 --
2019-09-29 11:00:00 20.9 0 Calma 4 Nordeste 0 947.3 1.7 --
2019-09-29 10:00:00 17.8 0 Calma -- -- 0 946.5 1.2 --
2019-09-29 09:00:00 14.3 0 Calma 8 Nordeste 0 945.9 0.4 --
2019-09-29 08:00:00 14.5 0 Calma -- -- 0 945.6 -0.2 --
2019-09-29 07:00:00 15 0 Calma 0 Calma 0 945.3 -0.8 --
2019-09-29 06:00:00 15.4 0 Calma -- -- 0 945.5 -0.7 --
2019-09-29 05:00:00 15.9 0 Calma 6 Nordeste 0 945.8 -0.5 --
2019-09-29 04:00:00 16.6 0 Calma 7 Nordeste 0 946.1 -0.4 --
2019-09-29 03:00:00 17.6 2 Nordeste 8 Nordeste 0 946.2 -0.3 --
2019-09-29 02:00:00 18.3 0 Calma -- -- 0 946.3 -0.1 --
2019-09-29 01:00:00 19.6 0 Calma -- -- 0 946.5 0 --
2019-09-29 00:00:00 21 0 Calma -- -- 0 946.5 0.2 --
2019-09-28 23:00:00 21.8 0 Calma -- -- 0 946.4 0.1 --
2019-09-28 22:00:00 23.2 0 Calma 12 Sudeste 0 946.5 -0.1 --
2019-09-28 21:00:00 26.9 10 Sudeste 13 Sudeste 0 946.3 -0.3 --
2019-09-28 20:00:00 28 9 Sudeste 12 Sudeste 0 946.3 -0.3 --
2019-09-28 19:00:00 30.8 8 Sudoeste 19 Sudoeste 0 946.6 -0.2 --
2019-09-28 18:00:00 31.2 14 Oeste 23 Sudoeste 0 946.6 -0.7 --
2019-09-28 17:00:00 31.1 11 Oeste 20 Oeste 0 946.6 -1.5 --
2019-09-28 16:00:00 30.9 6 Sudoeste 16 Oeste 0 946.8 -1.6 --
2019-09-28 15:00:00 30.1 6 Oeste 14 Oeste 0 947.3 -1.2 --
2019-09-28 14:00:00 28.6 4 Noroeste 11 Noroeste 0 948.1 -0.2 --
2019-09-28 13:00:00 26.8 2 Noroeste 7 Oeste 0 948.4 1.1 --
2019-09-28 12:00:00 23.9 0 Calma 9 Oeste 0 948.5 1.9 --
2019-09-28 11:00:00 20.9 0 Calma 5 Sur 0 948.3 2 --
2019-09-28 10:00:00 17.7 0 Calma 8 Nordeste 0 947.3 1.4 --
2019-09-28 09:00:00 13.8 0 Calma 5 Nordeste 0 946.6 0.8 --
2019-09-28 08:00:00 14.6 0 Calma 10 Nordeste 0 946.3 0.3 --
2019-09-28 07:00:00 14.6 0 Calma -- -- 0 945.9 -0.4 --
2019-09-28 06:00:00 15.3 0 Calma 7 Nordeste 0 945.8 -0.7 --
2019-09-28 05:00:00 15.8 0 Calma 9 Nordeste 0 946 -0.9 --
2019-09-28 04:00:00 16.8 0 Calma 5 Nordeste 0 946.3 -0.9 --
2019-09-28 03:00:00 17.4 0 Calma -- -- 0 946.5 -0.7 --
2019-09-28 02:00:00 18.3 0 Calma -- -- 0 946.9 -0.3 --
2019-09-28 01:00:00 19.6 0 Calma 0 Calma 0 947.2 0.1 --
2019-09-28 00:00:00 20.6 0 Calma -- -- 0 947.2 0.7 --
2019-09-27 23:00:00 21.9 0 Calma 0 Calma 0 947.2 1.2 --
2019-09-27 22:00:00 22.8 0 Calma 15 Sudeste 0 947.1 0.7 --
2019-09-27 21:00:00 25.9 10 Sur 15 Sur 0 946.5 0.6 --
2019-09-27 20:00:00 26.8 11 Sur 18 Sudoeste 0 946 -0.3 --
2019-09-27 19:00:00 29.2 13 Sudoeste 19 Sudoeste 0 946.4 -0.2 --
2019-09-27 18:00:00 30.2 9 Oeste 17 Sudoeste 0 945.9 -1.2 --
2019-09-27 17:00:00 29.9 9 Oeste 19 Sudoeste 0 946.3 -1.1 --
2019-09-27 16:00:00 29.9 4 Sudoeste 18 Oeste 0 946.6 -1 --
2019-09-27 15:00:00 28.4 10 Sudoeste 18 Sudoeste 0 947.1 -0.7 --
2019-09-27 14:00:00 27.6 6 Oeste 15 Oeste 0 947.4 -0.3 --
2019-09-27 13:00:00 25.3 5 Oeste 13 Oeste 0 947.6 0.6 --
2019-09-27 12:00:00 23.6 0 Calma 6 Sudoeste 0 947.8 1.6 --
2019-09-27 11:00:00 20.1 0 Calma 4 Oeste 0 947.7 1.5 --
2019-09-27 10:00:00 17.4 0 Calma 0 Calma 0 947 1.2 --
2019-09-27 09:00:00 14 0 Calma -- -- 0 946.2 0.3 --
2019-09-27 08:00:00 14.2 0 Calma 5 Norte 0 946.2 0.5 --
2019-09-27 07:00:00 14.6 0 Calma 4 Nordeste 0 945.8 -0.1 --
2019-09-27 06:00:00 15.1 0 Calma 7 Nordeste 0 945.9 -0.4 --
2019-09-27 05:00:00 15.7 0 Calma -- -- 0 945.7 -0.7 --
2019-09-27 04:00:00 16.3 0 Calma 12 Nordeste 0 945.9 -0.9 --
2019-09-27 03:00:00 17.2 0 Calma 8 Nordeste 0 946.3 -0.8 --
2019-09-27 02:00:00 17.4 0 Calma -- -- 0 946.4 -0.6 --
2019-09-27 01:00:00 19.3 0 Calma -- -- 0 946.8 -0.2 --
2019-09-27 00:00:00 19.9 0 Calma -- -- 0 947.1 0.6 --
2019-09-26 23:00:00 21.3 0 Calma 7 Nordeste 0 947 0.8 --
2019-09-26 22:00:00 24.5 4 Sur 13 Sur 0 947 0.9 --
2019-09-26 21:00:00 25.4 7 Sur 15 Sur 0 946.5 0.4 --
2019-09-26 20:00:00 26.9 6 Sur 13 Sudoeste 0 946.2 -0.1 --
2019-09-26 19:00:00 29.1 9 Sudoeste 18 Sudoeste 0 946.1 -0.2 --
2019-09-26 18:00:00 29.7 9 Sudoeste 20 Sudoeste 0 946.1 -0.5 --
2019-09-26 17:00:00 29.6 9 Oeste 21 Oeste 0 946.3 -0.9 --
2019-09-26 16:00:00 29.3 12 Sudoeste 22 Sudoeste 0 946.3 -1.2 --
2019-09-26 15:00:00 28.5 8 Sudoeste 19 Oeste 0 946.6 -0.9 --
2019-09-26 14:00:00 26.8 8 Oeste 15 Oeste 0 947.2 0 --
2019-09-26 13:00:00 25.2 5 Noroeste 9 Noroeste 0 947.5 1.1 --
2019-09-26 12:00:00 23.3 0 Calma 7 Oeste 0 947.5 2.2 --
2019-09-26 11:00:00 20.7 0 Calma 0 Calma 0 947.2 2.2 --
2019-09-26 10:00:00 17.5 0 Calma 6 Nordeste 0 946.4 1.8 --
2019-09-26 09:00:00 14.3 0 Calma -- -- 0 945.3 0.7 --
2019-09-26 08:00:00 14 0 Calma 6 Nordeste 0 945 0.4 --
2019-09-26 07:00:00 14.7 0 Calma -- -- 0 944.6 0 --
2019-09-26 06:00:00 15 0 Calma -- -- 0 944.6 -0.2 --
2019-09-26 05:00:00 15.9 2 Nordeste 9 Nordeste 0 944.6 -0.4 --
2019-09-26 04:00:00 16.1 0 Calma 6 Nordeste 0 944.6 -0.9 --
2019-09-26 03:00:00 16.6 0 Calma -- -- 0 944.8 -0.8 --
2019-09-26 02:00:00 17.5 0 Calma 12 Nordeste 0 945 -0.4 --
2019-09-26 01:00:00 18.2 0 Calma 4 Nordeste 0 945.5 0.1 --
2019-09-26 00:00:00 19.1 0 Calma 3 Nordeste 0 945.6 0.6 --
2019-09-25 23:00:00 20.5 0 Calma 9 Sudeste 0 945.4 0.6 --
2019-09-25 22:00:00 21.8 0 Calma 13 Sur 0 945.4 1 --
2019-09-25 21:00:00 23.4 7 Sur 13 Sur 0 945 0.6 --
2019-09-25 20:00:00 25 8 Sur 15 Sudoeste 0 944.8 0.3 --
2019-09-25 19:00:00 26.9 10 Sudoeste 21 Oeste 0 944.4 -0.4 --
2019-09-25 18:00:00 27.5 10 Sudoeste 22 Sudoeste 0 944.4 -0.6 --
2019-09-25 17:00:00 27.4 11 Oeste 25 Oeste 0 944.5 -1.1 --
2019-09-25 16:00:00 26.5 10 Oeste 25 Sudoeste 0 944.8 -1.2 --
2019-09-25 15:00:00 26 11 Sudoeste 28 Oeste 0 945 -1.1 --
2019-09-25 14:00:00 24.8 13 Oeste 26 Sudoeste 0 945.6 -0.3 --
2019-09-25 13:00:00 24.4 9 Sudoeste 23 Oeste 0 946 0.9 --
2019-09-25 12:00:00 22.8 12 Sudoeste 22 Sudoeste 0 946.1 1.6 --
2019-09-25 11:00:00 20.6 2 Noroeste 9 Sudoeste 0 945.9 1.8 --
2019-09-25 10:00:00 18.6 0 Calma 4 Norte 0 945.1 1 --
2019-09-25 09:00:00 15.9 0 Calma 5 Nordeste 0 944.5 0.2 --
2019-09-25 08:00:00 15.2 0 Calma 10 Nordeste 0 944.1 -0.1 --
2019-09-25 07:00:00 15.2 0 Calma 8 Norte 0 944.1 -0.6 --
2019-09-25 06:00:00 15.9 0 Calma 6 Sudoeste 0 944.3 -0.4 --
2019-09-25 05:00:00 16.6 2 Nordeste 9 Sudeste 0 944.2 -0.9 --
2019-09-25 04:00:00 17.7 0 Calma 12 Sur 0 944.7 -1 --
2019-09-25 03:00:00 17.2 0 Calma 7 Sur 0 944.7 -1.3 --
2019-09-25 02:00:00 18.3 0 Calma 10 Norte 0 945.1 -1.1 --
2019-09-25 01:00:00 19.7 0 Calma 8 Norte 0 945.7 -0.5 --
2019-09-25 00:00:00 20.5 0 Calma 7 Este 0 946 0.2 --
2019-09-24 23:00:00 21.9 0 Calma 12 Sur 0 946.2 0.6 --
2019-09-24 22:00:00 24.5 4 Sur 14 Sur 0 946.2 0.7 --
2019-09-24 21:00:00 25.1 8 Sur 15 Sur 0 945.8 0 --
2019-09-24 20:00:00 26.1 8 Sur 21 Sudoeste 0 945.6 -0.6 --
2019-09-24 19:00:00 28.2 14 Sudoeste 22 Sudoeste 0 945.5 -1.2 --
2019-09-24 18:00:00 29 10 Sudoeste 21 Sudoeste 0 945.8 -1.3 --
2019-09-24 17:00:00 28.7 9 Sudoeste 20 Oeste 0 946.2 -1.8 --
2019-09-24 16:00:00 28.1 10 Oeste 21 Oeste 0 946.7 -1.8 --
2019-09-24 15:00:00 27.4 10 Oeste 22 Oeste 0 947.1 -1.7 --
2019-09-24 14:00:00 26.1 9 Oeste 19 Sudoeste 0 948 -0.4 --
2019-09-24 13:00:00 24.6 6 Oeste 14 Oeste 0 948.5 0.9 --
2019-09-24 12:00:00 21.8 0 Calma 6 Sudoeste 0 948.8 2.1 --
2019-09-24 11:00:00 19.3 2 Norte 14 Noroeste 0 948.4 2.2 --
2019-09-24 10:00:00 16.6 0 Calma 4 Nordeste 0 947.6 1.5 --
2019-09-24 09:00:00 14 0 Calma 8 Nordeste 0 946.7 0.9 --
2019-09-24 08:00:00 13.5 0 Calma 9 Nordeste 0 946.2 0.1 --
2019-09-24 07:00:00 13.8 0 Calma 6 Norte 0 946.1 -0.4 --
2019-09-24 06:00:00 14.1 0 Calma 5 Sur 0 945.8 -0.9 --
2019-09-24 05:00:00 14.8 0 Calma 6 Este 0 946.1 -1.1 --
2019-09-24 04:00:00 15.3 0 Calma 8 Nordeste 0 946.5 -1 --
2019-09-24 03:00:00 15.8 0 Calma -- -- 0 946.7 -1.2 --
2019-09-24 02:00:00 16.6 0 Calma -- -- 0 947.2 -0.9 --
2019-09-24 01:00:00 17.3 0 Calma -- -- 0 947.5 -0.3 --
2019-09-24 00:00:00 18.3 0 Calma 6 Nordeste 0 947.9 0.4 --
2019-09-23 23:00:00 19.4 0 Calma 6 Norte 0 948.1 0.6 --
2019-09-23 22:00:00 20.4 0 Calma 5 Sudeste 0 947.8 0.7 --
2019-09-23 21:00:00 21.5 5 Sudeste 11 Sur 0 947.5 0.2 --
2019-09-23 20:00:00 23.4 7 Sur 11 Sur 0 947.5 0.3 --
2019-09-23 19:00:00 25.2 6 Sur 10 Sur 0 947.1 -0.1 --
2019-09-23 18:00:00 25.9 6 Sudoeste 13 Sudoeste 0 947.3 0 --
2019-09-23 17:00:00 26.1 6 Sudoeste 14 Sudoeste 0 947.2 -0.5 --
2019-09-23 16:00:00 25.4 4 Oeste -- -- -- 947.2 -0.8 --
2019-09-23 15:00:00 24.8 3 Noroeste -- -- -- 947.3 -0.8 --
2019-09-23 14:00:00 23.3 0 Calma 15 Norte 0 947.7 0.1 --
2019-09-23 13:00:00 21.8 6 Norte -- -- -- 948 0.9 --
2019-09-23 12:00:00 20.5 4 Nordeste 11 Nordeste 0 948.1 1.9 --
2019-09-23 11:00:00 17.7 3 Norte 12 Nordeste 0 947.6 1.6 --
2019-09-23 10:00:00 15.4 0 Calma 8 Este 0 947.1 1.8 --
2019-09-23 09:00:00 13.4 2 Nordeste 9 Este 0 946.2 0.9 --
2019-09-23 08:00:00 13.2 2 Nordeste 16 Nordeste 0 946 1 --
2019-09-23 07:00:00 13.2 0 Calma -- -- 0 945.3 0.3 --
2019-09-23 06:00:00 13.9 0 Calma -- -- 0 945.3 -0.1 --
2019-09-23 05:00:00 13.9 0 Calma -- -- 0 945 -0.5 --
2019-09-23 04:00:00 14.5 0 Calma -- -- 0 945 -0.8 --
2019-09-23 03:00:00 15.3 0 Calma -- -- 0 945.4 -0.3 --
2019-09-23 02:00:00 15.6 0 Calma -- -- 0 945.5 0 --
2019-09-23 01:00:00 16.4 0 Calma -- -- 0 945.8 0.9 --
2019-09-23 00:00:00 17.5 0 Calma 6 Sudeste 0 945.7 1.1 --
2019-09-22 23:00:00 18.4 0 Calma 9 Sur 0 945.5 1.4 --
2019-09-22 22:00:00 19.3 7 Sur 14 Sur 0 944.9 1.1 --
2019-09-22 21:00:00 20 8 Sudoeste 18 Sudoeste 0 944.6 1.5 --
2019-09-22 20:00:00 21.1 8 Oeste 21 Oeste 0 944.1 0.9 --
2019-09-22 19:00:00 22.3 14 Oeste 23 Sudoeste 0 943.8 0.1 --
2019-09-22 18:00:00 22.4 8 Sudoeste 17 Sudoeste 0 943.1 -0.4 --
2019-09-22 17:00:00 21.5 7 Sudoeste 18 Sudoeste 0.1 943.2 -0.3 --
2019-09-22 16:00:00 20.6 9 Oeste 17 Oeste 0 943.7 0.2 --
2019-09-22 15:00:00 20.6 9 Sudoeste 26 Oeste 0 943.5 0.2 --
2019-09-22 14:00:00 22.1 15 Sudoeste 34 Sudoeste 0 943.5 0.1 --
2019-09-22 13:00:00 22.4 12 Sudoeste 24 Sudoeste 0 943.5 0.4 --
2019-09-22 12:00:00 21.2 12 Sudoeste 21 Sudoeste 0 943.3 0.9 --
2019-09-22 11:00:00 19.7 12 Sudoeste 21 Sudoeste 0 943.4 1.5 --
2019-09-22 10:00:00 18.7 10 Sudoeste 16 Sudoeste 0 943.1 1.2 --
2019-09-22 09:00:00 18.4 8 Sudoeste 15 Sudoeste 0 942.4 0.7 --
2019-09-22 08:00:00 18.3 8 Sudoeste 16 Sudoeste 0 941.9 0.2 --
2019-09-22 07:00:00 18.8 8 Sudoeste 16 Sudoeste 0 941.9 -0.3 --
2019-09-22 06:00:00 19 8 Sudoeste 18 Sudoeste 0 941.7 0.4 --
2019-09-22 05:00:00 19.1 5 Sur 16 Sudoeste 0 941.7 -0.2 --
2019-09-22 04:00:00 19.3 3 Sudoeste 8 Sudoeste 0 942.2 -0.1 --
2019-09-22 03:00:00 19.9 0 Calma 13 Sudoeste 0 941.3 -1.3 --
2019-09-22 02:00:00 20.2 7 Sur 13 Sudoeste 0 941.9 -0.7 --
2019-09-22 01:00:00 20.2 6 Sur 17 Sur 0 942.3 0.1 --
2019-09-22 00:00:00 20.8 8 Sur 19 Sur 0 942.6 1.4 --
2019-09-21 23:00:00 21.2 9 Sudoeste 15 Sudoeste 0.1 942.6 1.7 --
2019-09-21 22:00:00 21.5 3 Sudoeste 10 Sudoeste 0 942.2 1.3 --
2019-09-21 21:00:00 22 0 Calma 5 Sudeste 0 941.2 -0.4 --
2019-09-21 20:00:00 22.3 3 Sur 9 Oeste 0 940.9 -0.4 --
2019-09-21 19:00:00 23.1 2 Sur 18 Sudoeste 0.1 940.9 -0.7 --
2019-09-21 18:00:00 23.8 8 Sudoeste 18 Sudoeste 0 941.6 -0.1 --
2019-09-21 17:00:00 24.1 9 Oeste 18 Sudoeste 0 941.3 -0.9 --
2019-09-21 16:00:00 24 7 Oeste 15 Oeste 0 941.6 -0.8 --
2019-09-21 15:00:00 22.9 0 Calma 11 Sudoeste 0 941.7 -0.6 --
2019-09-21 14:00:00 22.7 4 Oeste 12 Oeste 0 942.2 0.3 --
2019-09-21 13:00:00 22.6 6 Oeste 13 Oeste 0 942.4 0.5 --
2019-09-21 12:00:00 21.9 0 Calma 7 Sudoeste 0 942.3 0.8 --
2019-09-21 11:00:00 20.3 0 Calma 6 Norte 0 941.9 0.4 --
2019-09-21 10:00:00 19.9 0 Calma 5 Este 0 941.9 0.3 --
2019-09-21 09:00:00 19.3 0 Calma 0 Calma 0 941.5 0.1 --
2019-09-21 08:00:00 19.6 0 Calma -- -- 0 941.5 0 --
2019-09-21 07:00:00 19.7 0 Calma 0 Calma 0 941.6 0 --
2019-09-21 06:00:00 19.6 0 Calma 7 Sudeste 0 941.4 -0.7 --
2019-09-21 05:00:00 19.9 0 Calma 11 Sur 1.5 941.5 -0.6 --
2019-09-21 04:00:00 20.8 0 Calma 5 Nordeste 0.3 941.6 -1 --
2019-09-21 03:00:00 21.2 0 Calma 9 Sudoeste 0 942.1 -0.4 --
2019-09-21 02:00:00 21.9 0 Calma 13 Sudoeste 0 942.1 -0.4 --
2019-09-21 01:00:00 22.2 0 Calma 13 Sur 0 942.6 0.7 --
2019-09-21 00:00:00 22.7 9 Sur 24 Sur 0 942.5 1 --
2019-09-20 23:00:00 23.2 10 Sudoeste 19 Sudoeste 0 942.5 0.9 --
2019-09-20 22:00:00 23.3 6 Sur 12 Sudoeste 0 941.9 0.3 --
2019-09-20 21:00:00 23.9 9 Sudoeste 21 Sudoeste 0 941.5 -0.2 --
2019-09-20 20:00:00 25.1 0 Calma 18 Sudoeste 0 941.6 0 --
2019-09-20 19:00:00 26.1 8 Sudoeste 21 Oeste 0 941.6 -0.2 --
2019-09-20 18:00:00 27.1 12 Sudoeste 23 Oeste 0 941.7 -0.6 --
2019-09-20 17:00:00 27.9 11 Sudoeste 22 Sudoeste 0 941.6 -1.1 --
2019-09-20 16:00:00 27.4 14 Sudoeste 25 Sudoeste 0 941.8 -1.2 --
2019-09-20 15:00:00 27.6 9 Sudoeste 19 Oeste 0 942.3 -1 --
2019-09-20 14:00:00 26.5 9 Oeste 19 Sudoeste 0 942.7 -0.4 --
2019-09-20 13:00:00 25.6 6 Oeste 14 Oeste 0 943 0.1 --
2019-09-20 12:00:00 24.7 3 Oeste 16 Nordeste 0 943.3 0.7 --
2019-09-20 11:00:00 23.2 12 Nordeste 19 Nordeste 0 943.1 0.5 --
2019-09-20 10:00:00 20.5 0 Calma 5 Sur 0 942.9 0.5 --
2019-09-20 09:00:00 19.1 0 Calma -- -- 0 942.6 -0.1 --
2019-09-20 08:00:00 18.8 0 Calma -- -- 0 942.6 -0.4 --
2019-09-20 07:00:00 19.2 0 Calma 5 Sudeste 0 942.4 -0.7 --
2019-09-20 06:00:00 19.9 0 Calma 10 Sur 0 942.7 -0.8 --
2019-09-20 05:00:00 20.2 0 Calma 8 Sudoeste 0 943 -0.6 --
2019-09-20 04:00:00 20.6 0 Calma -- -- 0 943.1 -0.5 --
2019-09-20 03:00:00 20.4 0 Calma -- -- 0 943.5 -0.5 --
2019-09-20 02:00:00 21.3 2 Nordeste 7 Nordeste 0 943.6 -0.4 --
2019-09-20 01:00:00 21.4 0 Calma -- -- 0 943.6 -0.3 --
2019-09-20 00:00:00 22.1 0 Calma 5 Sudoeste 0 944 0.5 --
2019-09-19 23:00:00 23 0 Calma 13 Sudeste 0 944 0.9 --
2019-09-19 22:00:00 22.9 3 Este 11 Sudeste 0 943.9 0.8 --
2019-09-19 21:00:00 24.5 8 Sudeste 10 Sudeste 0 943.5 0.2 --
2019-09-19 20:00:00 27.3 4 Sur 13 Oeste 0 943.1 -0.3 --
2019-09-19 19:00:00 28.9 8 Oeste 15 Oeste 0 943.1 -0.8 --
2019-09-19 18:00:00 28.9 7 Sudoeste 21 Oeste 0 943.3 -0.9 --
2019-09-19 17:00:00 28.9 13 Oeste 25 Sudoeste 0 943.4 -1.3 --
2019-09-19 16:00:00 28.8 13 Oeste 29 Oeste 0 943.9 -1.2 --
2019-09-19 15:00:00 27.9 12 Sudoeste 22 Oeste 0 944.2 -1 --
2019-09-19 14:00:00 26.4 7 Noroeste 14 Noroeste 0 944.7 -0.6 --
2019-09-19 13:00:00 25 3 Oeste 11 Oeste 0 945.1 0.5 --
2019-09-19 12:00:00 23 2 Noroeste 7 Oeste 0 945.2 1.2 --
2019-09-19 11:00:00 21.1 2 Norte 6 Norte 0 945.3 1.7 --
2019-09-19 10:00:00 19.4 0 Calma 5 Nordeste 0 944.6 1 --
2019-09-19 09:00:00 17.5 0 Calma 5 Nordeste 0 944 0.6 --
2019-09-19 08:00:00 16.7 0 Calma -- -- 0 943.6 0.1 --
2019-09-19 07:00:00 17.4 0 Calma 6 Sur 0 943.6 -0.2 --
2019-09-19 06:00:00 17.7 0 Calma -- -- 0 943.4 -0.8 --
2019-09-19 05:00:00 18.1 0 Calma 5 Nordeste 0 943.5 -0.8 --
2019-09-19 04:00:00 18.6 0 Calma 6 Nordeste 0 943.8 -0.6 --
2019-09-19 03:00:00 19.4 0 Calma -- -- 0 944.2 -0.5 --
2019-09-19 02:00:00 20.2 0 Calma 6 Nordeste 0 944.3 -0.6 --
2019-09-19 01:00:00 20.7 3 Nordeste 10 Nordeste 0 944.4 0 --
2019-09-19 00:00:00 22.8 7 Sudeste 10 Sudeste 0 944.7 0.7 --
2019-09-18 23:00:00 23 5 Nordeste 11 Sur 0 944.9 1.4 --
2019-09-18 22:00:00 24.8 8 Sur 16 Sur 0 944.4 1.3 --
2019-09-18 21:00:00 25.4 12 Sur 18 Sur 0 944 0.7 --
2019-09-18 20:00:00 27.2 6 Sur 15 Sudoeste 0 943.5 0 --
2019-09-18 19:00:00 28.7 8 Sudoeste 16 Sudoeste 0 943.1 -0.7 --
2019-09-18 18:00:00 29.1 9 Sudoeste 19 Sudoeste 0 943.3 -1.1 --
2019-09-18 17:00:00 29 9 Sudoeste 19 Sudoeste 0 943.5 -1.3 --
2019-09-18 16:00:00 28.4 6 Oeste 15 Oeste 0 943.8 -1.1 --
2019-09-18 15:00:00 27.5 4 Noroeste 14 Sudoeste 0 944.4 -0.5 --
2019-09-18 14:00:00 26.6 4 Sudoeste 12 Oeste 0 944.8 0.3 --
2019-09-18 13:00:00 24.9 0 Calma 10 Sudoeste 0 944.9 0.9 --
2019-09-18 12:00:00 23 3 Oeste 11 Oeste 0 944.9 1.7 --
2019-09-18 11:00:00 20.9 0 Calma 8 Oeste 0 944.5 1.8 --
2019-09-18 10:00:00 18.9 0 Calma 7 Norte 0 944 1.6 --
2019-09-18 09:00:00 17 0 Calma 4 Este 0 943.2 0.9 --
2019-09-18 08:00:00 16.4 0 Calma 5 Sur 0 942.7 0.3 --
2019-09-18 07:00:00 17.3 5 Nordeste 11 Nordeste 0 942.4 -0.4 --
2019-09-18 06:00:00 17.6 0 Calma 11 Nordeste 0 942.3 -1.2 --
2019-09-18 05:00:00 17.6 0 Calma 8 Nordeste 0 942.4 -1.2 --
2019-09-18 04:00:00 17.9 0 Calma 6 Nordeste 0 942.8 -0.4 --
2019-09-18 03:00:00 18.5 0 Calma 0 Calma 0 943.5 0 --
2019-09-18 02:00:00 19.5 0 Calma 8 Sudeste 0 943.6 0 --
2019-09-18 01:00:00 19.2 0 Calma 3 Oeste 0 943.2 -0.4 --
2019-09-18 00:00:00 20.1 0 Calma 12 Nordeste 0 943.5 0.1 --
2019-09-17 23:00:00 21.7 2 Sudoeste 11 Nordeste 0 943.6 0.1 --
2019-09-17 22:00:00 21.9 0 Calma 6 Norte 0 943.6 0.8 --
2019-09-17 21:00:00 23.6 0 Calma 16 Sur 0 943.4 -0.1 --